createdAt,value
2019-04-01T00:00:27.123Z,11.76
2019-04-01T00:02:58.795Z,11.72
2019-04-01T00:05:30.386Z,11.76
2019-04-01T00:08:02.022Z,11.72
2019-04-01T00:10:33.637Z,11.63
2019-04-01T00:13:05.249Z,11.46
2019-04-01T00:15:36.841Z,11.36
2019-04-01T00:18:08.404Z,11.35
2019-04-01T00:20:39.990Z,11.29
2019-04-01T00:23:11.691Z,11.25
2019-04-01T00:25:43.465Z,11.25
2019-04-01T00:28:15.065Z,11.26
2019-04-01T00:30:46.682Z,11.24
2019-04-01T00:33:18.262Z,11.19
2019-04-01T00:35:49.878Z,11.18
2019-04-01T00:38:21.581Z,11.12
2019-04-01T00:40:53.273Z,11.10
2019-04-01T00:43:59.831Z,11.12
2019-04-01T00:46:32.855Z,11.14
2019-04-01T00:49:04.448Z,11.14
2019-04-01T00:51:36.034Z,11.04
2019-04-01T00:54:07.609Z,10.95
2019-04-01T00:56:39.245Z,10.93
2019-04-01T00:59:10.935Z,10.89
2019-04-01T01:01:42.634Z,10.89
2019-04-01T01:04:14.228Z,10.89
2019-04-01T01:06:45.848Z,10.90
2019-04-01T01:09:17.512Z,10.87
2019-04-01T01:11:49.155Z,10.88
2019-04-01T01:14:20.741Z,10.97
2019-04-01T01:16:52.366Z,10.93
2019-04-01T01:19:23.965Z,10.91
2019-04-01T01:21:55.585Z,10.91
2019-04-01T01:24:28.243Z,10.77
2019-04-01T01:26:59.841Z,10.64
2019-04-01T01:29:31.415Z,10.43
2019-04-01T01:32:03.039Z,10.31
2019-04-01T01:34:34.639Z,10.38
2019-04-01T01:37:06.261Z,10.28
2019-04-01T01:39:37.886Z,10.17
2019-04-01T01:42:11.040Z,10.13
2019-04-01T01:44:42.654Z,10.13
2019-04-01T01:47:14.262Z,10.06
2019-04-01T01:49:45.837Z,9.98
2019-04-01T01:52:17.403Z,10.00
2019-04-01T01:54:49.020Z,10.01
2019-04-01T01:57:20.587Z,9.97
2019-04-01T01:59:53.253Z,9.93
2019-04-01T02:02:24.845Z,9.88
2019-04-01T02:04:56.423Z,9.83
2019-04-01T02:07:28.046Z,9.84
2019-04-01T02:09:59.634Z,9.84
2019-04-01T02:12:31.226Z,9.89
2019-04-01T02:15:02.812Z,9.89
2019-04-01T02:17:34.485Z,9.79
2019-04-01T02:20:06.204Z,9.80
2019-04-01T02:22:37.774Z,9.77
2019-04-01T02:25:09.436Z,9.68
2019-04-01T02:27:42.446Z,9.58
2019-04-01T02:30:14.021Z,9.54
2019-04-01T02:32:45.644Z,9.56
2019-04-01T02:35:17.257Z,9.60
2019-04-01T02:37:48.821Z,9.52
2019-04-01T02:40:22.170Z,9.41
2019-04-01T02:42:53.710Z,9.44
2019-04-01T02:45:26.353Z,9.43
2019-04-01T02:47:57.935Z,9.44
2019-04-01T02:50:29.546Z,9.43
2019-04-01T02:53:01.170Z,9.46
2019-04-01T02:55:33.260Z,9.47
2019-04-01T02:58:04.838Z,9.48
2019-04-01T03:00:36.425Z,9.38
2019-04-01T03:03:08.950Z,9.39
2019-04-01T03:05:40.549Z,9.37
2019-04-01T03:08:12.161Z,9.36
2019-04-01T03:10:43.729Z,9.40
2019-04-01T03:13:15.339Z,9.29
2019-04-01T03:15:46.952Z,9.33
2019-04-01T03:18:18.510Z,9.37
2019-04-01T03:20:50.132Z,9.38
2019-04-01T03:23:21.672Z,9.15
2019-04-01T03:25:53.301Z,9.19
2019-04-01T03:28:24.894Z,9.22
2019-04-01T03:30:56.590Z,9.21
2019-04-01T03:33:28.302Z,9.26
2019-04-01T03:35:59.889Z,9.23
2019-04-01T03:38:31.467Z,9.23
2019-04-01T03:41:03.077Z,9.33
2019-04-01T03:43:34.669Z,9.33
2019-04-01T03:46:06.230Z,9.30
2019-04-01T03:48:37.814Z,9.34
2019-04-01T03:51:09.365Z,9.34
2019-04-01T03:53:40.982Z,9.31
2019-04-01T03:56:12.572Z,9.32
2019-04-01T03:58:44.157Z,9.28
2019-04-01T04:01:15.732Z,9.21
2019-04-01T04:03:47.329Z,9.11
2019-04-01T04:06:18.910Z,9.12
2019-04-01T04:08:50.505Z,9.06
2019-04-01T04:11:23.349Z,9.07
2019-04-01T04:13:54.929Z,9.12
2019-04-01T04:16:26.488Z,9.12
2019-04-01T04:18:58.088Z,9.12
2019-04-01T04:21:30.754Z,9.11
2019-04-01T04:24:03.495Z,9.14
2019-04-01T04:26:35.583Z,9.09
2019-04-01T04:29:07.394Z,9.08
2019-04-01T04:31:38.992Z,9.09
2019-04-01T04:34:10.596Z,9.12
2019-04-01T04:36:42.221Z,9.15
2019-04-01T04:39:13.787Z,9.03
2019-04-01T04:41:45.368Z,9.05
2019-04-01T04:44:16.973Z,9.01
2019-04-01T04:46:48.560Z,8.98
2019-04-01T04:49:20.409Z,9.02
2019-04-01T04:51:51.999Z,9.03
2019-04-01T04:54:23.559Z,9.07
2019-04-01T04:56:55.147Z,9.05
2019-04-01T04:59:26.792Z,9.03
2019-04-01T05:01:58.402Z,9.04
2019-04-01T05:04:29.955Z,8.99
2019-04-01T05:07:01.660Z,8.74
2019-04-01T05:09:33.223Z,8.82
2019-04-01T05:12:04.844Z,8.88
2019-04-01T05:14:36.547Z,8.88
2019-04-01T05:17:08.259Z,8.89
2019-04-01T05:19:39.892Z,8.91
2019-04-01T05:22:12.127Z,8.91
2019-04-01T05:24:43.877Z,8.93
2019-04-01T05:27:18.968Z,8.99
2019-04-01T05:29:53.716Z,8.98
2019-04-01T05:32:27.154Z,9.06
2019-04-01T05:35:02.041Z,9.10
2019-04-01T05:37:34.197Z,9.04
2019-04-01T05:40:06.796Z,9.13
2019-04-01T05:42:38.709Z,9.22
2019-04-01T05:45:11.011Z,9.25
2019-04-01T05:47:48.999Z,9.33
2019-04-01T05:50:20.569Z,9.49
2019-04-01T05:52:52.148Z,9.68
2019-04-01T05:55:23.744Z,9.81
2019-04-01T05:57:55.610Z,9.93
2019-04-01T06:00:40.782Z,10.09
2019-04-01T06:03:12.352Z,10.21
2019-04-01T06:05:44.052Z,10.24
2019-04-01T06:08:16.059Z,10.36
2019-04-01T06:10:48.049Z,10.47
2019-04-01T06:13:19.649Z,10.48
2019-04-01T06:15:51.245Z,10.70
2019-04-01T06:18:22.827Z,10.96
2019-04-01T06:20:55.325Z,11.08
2019-04-01T06:23:26.922Z,11.26
2019-04-01T06:25:58.553Z,11.49
2019-04-01T06:28:30.176Z,11.63
2019-04-01T06:31:01.939Z,11.76
2019-04-01T06:33:33.544Z,11.88
2019-04-01T06:36:05.150Z,11.93
2019-04-01T06:38:36.910Z,11.95
2019-04-01T06:41:08.558Z,11.90
2019-04-01T06:43:40.146Z,11.77
2019-04-01T06:46:11.776Z,12.02
2019-04-01T06:48:43.507Z,12.30
2019-04-01T06:51:15.343Z,12.54
2019-04-01T06:53:46.942Z,12.81
2019-04-01T06:56:18.537Z,13.07
2019-04-01T06:58:50.107Z,12.97
2019-04-01T07:01:22.027Z,12.81
2019-04-01T07:03:53.586Z,13.07
2019-04-01T07:06:25.270Z,13.20
2019-04-01T07:08:56.846Z,13.21
2019-04-01T07:11:28.553Z,13.35
2019-04-01T07:14:00.561Z,13.34
2019-04-01T07:16:32.241Z,13.23
2019-04-01T07:19:03.946Z,13.14
2019-04-01T07:21:35.530Z,13.60
2019-04-01T07:24:07.437Z,13.96
2019-04-01T07:26:39.129Z,13.77
2019-04-01T07:29:10.840Z,14.05
2019-04-01T07:31:42.417Z,14.19
2019-04-01T07:34:14.017Z,14.28
2019-04-01T07:36:46.966Z,14.07
2019-04-01T07:39:18.588Z,13.95
2019-04-01T07:41:50.193Z,14.17
2019-04-01T07:44:22.083Z,13.90
2019-04-01T07:46:54.731Z,14.10
2019-04-01T07:49:26.330Z,14.35
2019-04-01T07:51:58.985Z,14.72
2019-04-01T07:54:30.618Z,14.77
2019-04-01T07:57:03.097Z,15.11
2019-04-01T07:59:34.765Z,15.12
2019-04-01T08:02:06.345Z,14.78
2019-04-01T08:04:38.006Z,14.47
2019-04-01T08:07:13.097Z,14.68
2019-04-01T08:09:42.920Z,14.84
2019-04-01T08:12:14.493Z,15.00
2019-04-01T08:14:47.231Z,15.08
2019-04-01T08:17:19.913Z,14.95
2019-04-01T08:19:51.586Z,15.03
2019-04-01T08:22:23.380Z,15.29
2019-04-01T08:24:55.308Z,15.18
2019-04-01T08:27:27.863Z,15.44
2019-04-01T08:29:59.494Z,15.77
2019-04-01T08:32:31.063Z,15.77
2019-04-01T08:35:02.640Z,15.55
2019-04-01T08:37:34.270Z,15.59
2019-04-01T08:40:06.930Z,15.71
2019-04-01T08:42:38.827Z,15.71
2019-04-01T08:45:10.540Z,15.99
2019-04-01T08:47:42.122Z,16.04
2019-04-01T08:50:13.707Z,16.14
2019-04-01T08:52:45.606Z,16.08
2019-04-01T08:55:18.955Z,16.08
2019-04-01T08:57:50.573Z,16.41
2019-04-01T09:00:22.319Z,16.47
2019-04-01T09:02:53.854Z,16.51
2019-04-01T09:05:25.454Z,16.66
2019-04-01T09:07:57.288Z,16.68
2019-04-01T09:10:28.891Z,16.83
2019-04-01T09:13:01.946Z,17.13
2019-04-01T09:15:33.600Z,16.94
2019-04-01T09:18:05.201Z,16.81
2019-04-01T09:20:36.813Z,17.07
2019-04-01T09:23:08.404Z,17.04
2019-04-01T09:25:40.016Z,17.03
2019-04-01T09:28:11.606Z,16.83
2019-04-01T09:30:43.217Z,16.77
2019-04-01T09:33:14.799Z,16.89
2019-04-01T09:35:46.403Z,17.04
2019-04-01T09:38:17.984Z,17.38
2019-04-01T09:40:49.575Z,17.62
2019-04-01T09:43:21.183Z,17.60
2019-04-01T09:45:52.790Z,17.65
2019-04-01T09:48:24.384Z,17.66
2019-04-01T09:50:56.037Z,17.60
2019-04-01T09:53:28.640Z,17.61
2019-04-01T09:56:00.211Z,17.59
2019-04-01T09:58:32.300Z,17.38
2019-04-01T10:01:03.880Z,17.42
2019-04-01T10:03:35.460Z,17.70
2019-04-01T10:06:10.268Z,17.92
2019-04-01T10:08:42.478Z,17.90
2019-04-01T10:11:13.680Z,17.77
2019-04-01T10:13:45.258Z,17.88
2019-04-01T10:16:16.826Z,18.17
2019-04-01T10:18:48.410Z,18.41
2019-04-01T10:21:20.037Z,18.28
2019-04-01T10:23:51.713Z,18.15
2019-04-01T10:26:23.299Z,18.31
2019-04-01T10:28:54.929Z,18.50
2019-04-01T10:31:26.533Z,18.58
2019-04-01T10:33:58.129Z,18.47
2019-04-01T10:36:29.738Z,18.36
2019-04-01T10:39:01.337Z,18.39
2019-04-01T10:41:34.552Z,18.37
2019-04-01T10:44:06.269Z,18.40
2019-04-01T10:46:40.649Z,18.41
2019-04-01T10:49:11.437Z,18.43
2019-04-01T10:51:43.113Z,18.56
2019-04-01T10:54:14.714Z,18.75
2019-04-01T10:56:46.621Z,18.61
2019-04-01T10:59:18.281Z,18.69
2019-04-01T11:01:49.884Z,18.51
2019-04-01T11:04:21.533Z,18.42
2019-04-01T11:06:53.218Z,18.64
2019-04-01T11:09:37.719Z,18.74
2019-04-01T11:11:58.178Z,18.74
2019-04-01T11:14:30.019Z,18.74
2019-04-01T11:17:04.372Z,18.74
2019-04-01T11:19:34.983Z,18.94
2019-04-01T11:22:06.941Z,19.10
2019-04-01T11:24:39.536Z,18.73
2019-04-01T11:27:11.435Z,18.70
2019-04-01T11:29:43.051Z,18.66
2019-04-01T11:32:14.681Z,18.64
2019-04-01T11:34:46.638Z,18.63
2019-04-01T11:37:18.243Z,18.63
2019-04-01T11:39:49.792Z,18.74
2019-04-01T11:42:22.919Z,18.65
2019-04-01T11:44:54.827Z,18.69
2019-04-01T11:47:26.393Z,18.50
2019-04-01T11:49:58.037Z,18.29
2019-04-01T11:52:29.641Z,18.48
2019-04-01T11:55:01.260Z,18.64
2019-04-01T11:57:33.999Z,18.59
2019-04-01T12:00:12.700Z,18.63
2019-04-01T12:02:44.239Z,18.65
2019-04-01T12:05:15.832Z,18.62
2019-04-01T12:07:48.500Z,18.63
2019-04-01T12:10:20.121Z,18.46
2019-04-01T12:12:52.112Z,18.48
2019-04-01T12:15:23.751Z,18.50
2019-04-01T12:17:55.347Z,18.45
2019-04-01T12:20:27.020Z,18.50
2019-04-01T12:22:58.595Z,18.51
2019-04-01T12:25:30.244Z,18.56
2019-04-01T12:28:01.857Z,18.52
2019-04-01T12:30:33.496Z,18.23
2019-04-01T12:33:05.286Z,18.17
2019-04-01T12:35:37.480Z,18.36
2019-04-01T12:38:09.067Z,18.42
2019-04-01T12:40:41.307Z,18.34
2019-04-01T12:43:12.963Z,18.29
2019-04-01T12:45:44.597Z,18.33
2019-04-01T12:48:16.224Z,18.52
2019-04-01T12:50:47.845Z,18.58
2019-04-01T12:53:19.450Z,18.51
2019-04-01T12:55:51.545Z,18.48
2019-04-01T12:58:25.215Z,18.46
2019-04-01T13:00:56.508Z,18.38
2019-04-01T13:03:28.076Z,18.29
2019-04-01T13:05:59.731Z,18.29
2019-04-01T13:08:32.389Z,18.32
2019-04-01T13:11:04.014Z,18.28
2019-04-01T13:13:35.864Z,18.43
2019-04-01T13:16:09.241Z,18.50
2019-04-01T13:18:40.987Z,18.68
2019-04-01T13:21:12.851Z,18.68
2019-04-01T13:23:44.479Z,18.65
2019-04-01T13:26:16.075Z,18.44
2019-04-01T13:28:47.653Z,18.40
2019-04-01T13:31:19.297Z,18.41
2019-04-01T13:33:50.913Z,18.47
2019-04-01T13:36:22.528Z,18.64
2019-04-01T13:38:54.153Z,18.45
2019-04-01T13:41:25.781Z,18.45
2019-04-01T13:43:57.343Z,18.49
2019-04-01T13:46:29.236Z,18.58
2019-04-01T13:49:04.408Z,18.35
2019-04-01T13:51:35.164Z,18.33
2019-04-01T13:54:09.068Z,18.32
2019-04-01T13:56:40.120Z,18.12
2019-04-01T13:59:12.861Z,18.09
2019-04-01T14:01:44.498Z,18.06
2019-04-01T14:04:16.445Z,18.09
2019-04-01T14:06:48.080Z,18.20
2019-04-01T14:09:20.773Z,18.31
2019-04-01T14:11:52.580Z,18.43
2019-04-01T14:14:25.269Z,18.39
2019-04-01T14:16:56.958Z,18.32
2019-04-01T14:19:28.541Z,18.41
2019-04-01T14:22:00.174Z,18.37
2019-04-01T14:24:31.784Z,18.30
2019-04-01T14:27:03.403Z,18.22
2019-04-01T14:29:36.560Z,18.17
2019-04-01T14:32:08.489Z,18.21
2019-04-01T14:34:40.118Z,18.23
2019-04-01T14:37:12.462Z,18.23
2019-04-01T14:39:46.464Z,18.24
2019-04-01T14:42:18.138Z,18.42
2019-04-01T14:44:59.662Z,18.36
2019-04-01T14:47:32.568Z,18.30
2019-04-01T14:50:07.485Z,18.35
2019-04-01T14:52:37.679Z,18.44
2019-04-01T14:55:09.783Z,18.49
2019-04-01T14:57:41.427Z,18.56
2019-04-01T15:00:15.547Z,18.61
2019-04-01T15:02:47.146Z,18.52
2019-04-01T15:05:18.736Z,18.38
2019-04-01T15:07:50.378Z,18.43
2019-04-01T15:10:22.088Z,18.46
2019-04-01T15:13:04.912Z,18.59
2019-04-01T15:15:27.033Z,18.53
2019-04-01T15:17:58.658Z,18.54
2019-04-01T15:20:30.296Z,18.55
2019-04-01T15:23:01.933Z,18.53
2019-04-01T15:25:33.565Z,18.52
2019-04-01T15:28:05.215Z,18.53
2019-04-01T15:30:36.864Z,18.49
2019-04-01T15:33:08.535Z,18.51
2019-04-01T15:35:40.152Z,18.46
2019-04-01T15:38:11.739Z,18.53
2019-04-01T15:40:43.353Z,18.48
2019-04-01T15:43:14.961Z,18.43
2019-04-01T15:45:46.636Z,18.38
2019-04-01T15:48:18.278Z,18.34
2019-04-01T15:50:49.857Z,18.39
2019-04-01T15:53:23.490Z,18.40
2019-04-01T15:55:54.839Z,18.24
2019-04-01T15:58:26.414Z,18.32
2019-04-01T16:00:58.020Z,18.32
2019-04-01T16:03:29.647Z,18.34
2019-04-01T16:06:02.999Z,18.38
2019-04-01T16:08:34.656Z,18.39
2019-04-01T16:11:06.312Z,18.28
2019-04-01T16:13:38.053Z,18.20
2019-04-01T16:16:09.671Z,18.20
2019-04-01T16:18:41.328Z,18.16
2019-04-01T16:21:13.066Z,18.06
2019-04-01T16:23:45.062Z,18.03
2019-04-01T16:26:16.697Z,17.97
2019-04-01T16:28:48.379Z,18.00
2019-04-01T16:31:19.991Z,18.02
2019-04-01T16:33:51.632Z,18.00
2019-04-01T16:36:23.260Z,18.02
2019-04-01T16:38:55.016Z,17.95
2019-04-01T16:41:26.620Z,17.91
2019-04-01T16:43:58.331Z,17.92
2019-04-01T16:46:29.951Z,17.78
2019-04-01T16:49:01.623Z,17.69
2019-04-01T16:51:33.255Z,17.71
2019-04-01T16:54:04.917Z,17.71
2019-04-01T16:56:37.233Z,17.65
2019-04-01T16:59:09.727Z,17.67
2019-04-01T17:01:41.763Z,17.50
2019-04-01T17:04:13.472Z,17.50
2019-04-01T17:06:45.144Z,17.45
2019-04-01T17:09:16.750Z,17.40
2019-04-01T17:11:48.383Z,17.40
2019-04-01T17:14:19.988Z,17.31
2019-04-01T17:16:51.654Z,17.29
2019-04-01T17:19:23.323Z,17.36
2019-04-01T17:21:54.916Z,17.25
2019-04-01T17:24:28.079Z,17.23
2019-04-01T17:27:24.954Z,17.19
2019-04-01T17:29:56.664Z,17.16
2019-04-01T17:32:28.681Z,17.03
2019-04-01T17:35:00.317Z,16.99
2019-04-01T17:37:32.414Z,16.97
2019-04-01T17:40:04.100Z,16.93
2019-04-01T17:42:39.258Z,16.89
2019-04-01T17:45:32.087Z,16.85
2019-04-01T17:48:04.596Z,16.82
2019-04-01T17:50:36.683Z,16.68
2019-04-01T17:53:10.738Z,16.57
2019-04-01T17:55:45.640Z,16.52
2019-04-01T17:58:17.711Z,16.48
2019-04-01T18:00:57.593Z,16.40
2019-04-01T18:03:29.275Z,16.30
2019-04-01T18:06:00.918Z,16.30
2019-04-01T18:08:34.098Z,16.25
2019-04-01T18:11:05.956Z,16.17
2019-04-01T18:13:37.587Z,16.13
2019-04-01T18:16:09.200Z,16.07
2019-04-01T18:18:40.829Z,16.02
2019-04-01T18:21:13.495Z,16.04
2019-04-01T18:23:45.154Z,15.98
2019-04-01T18:26:17.131Z,15.87
2019-04-01T18:28:49.724Z,15.77
2019-04-01T18:31:21.327Z,15.73
2019-04-01T18:33:56.534Z,15.68
2019-04-01T18:36:26.289Z,15.60
2019-04-01T18:38:58.008Z,15.51
2019-04-01T18:41:29.670Z,15.45
2019-04-01T18:44:01.277Z,15.33
2019-04-01T18:46:32.893Z,15.29
2019-04-01T18:49:04.638Z,15.15
2019-04-01T18:51:36.631Z,15.10
2019-04-01T18:54:08.915Z,15.03
2019-04-01T18:56:40.513Z,14.97
2019-04-01T18:59:12.154Z,14.85
2019-04-01T19:01:44.198Z,14.79
2019-04-01T19:04:17.225Z,14.77
2019-04-01T19:06:49.867Z,14.68
2019-04-01T19:09:21.694Z,14.66
2019-04-01T19:12:03.381Z,14.63
2019-04-01T19:14:26.670Z,14.58
2019-04-01T19:16:58.253Z,14.50
2019-04-01T19:19:29.871Z,14.38
2019-04-01T19:22:01.498Z,14.42
2019-04-01T19:24:33.130Z,14.34
2019-04-01T19:27:04.787Z,14.29
2019-04-01T19:29:36.432Z,14.24
2019-04-01T19:32:09.372Z,14.20
2019-04-01T19:34:41.068Z,14.17
2019-04-01T19:37:12.729Z,14.09
2019-04-01T19:39:44.340Z,14.07
2019-04-01T19:42:15.953Z,14.00
2019-04-01T19:44:47.549Z,13.97
2019-04-01T19:47:19.227Z,13.97
2019-04-01T19:49:50.840Z,13.92
2019-04-01T19:52:22.513Z,13.89
2019-04-01T19:54:54.431Z,13.91
2019-04-01T19:57:26.069Z,13.90
2019-04-01T19:59:57.710Z,13.87
2019-04-01T20:02:29.341Z,13.82
2019-04-01T20:05:00.928Z,13.78
2019-04-01T20:07:33.601Z,13.81
2019-04-01T20:10:05.890Z,13.75
2019-04-01T20:12:37.447Z,13.74
2019-04-01T20:15:11.925Z,13.71
2019-04-01T20:17:43.329Z,13.64
2019-04-01T20:20:15.442Z,13.68
2019-04-01T20:22:47.037Z,13.64
2019-04-01T20:25:19.143Z,13.60
2019-04-01T20:27:50.778Z,13.58
2019-04-01T20:30:22.491Z,13.52
2019-04-01T20:32:54.128Z,13.41
2019-04-01T20:35:25.718Z,13.44
2019-04-01T20:37:58.281Z,13.37
2019-04-01T20:40:29.921Z,13.31
2019-04-01T20:43:01.520Z,13.29
2019-04-01T20:45:33.172Z,13.30
2019-04-01T20:48:04.869Z,13.27
2019-04-01T20:50:36.532Z,13.23
2019-04-01T20:53:08.116Z,13.21
2019-04-01T20:55:48.002Z,13.18
2019-04-01T20:58:13.255Z,13.13
2019-04-01T21:00:45.804Z,13.13
2019-04-01T21:03:18.900Z,13.17
2019-04-01T21:05:50.508Z,13.13
2019-04-01T21:08:22.354Z,13.01
2019-04-01T21:10:53.985Z,12.97
2019-04-01T21:13:25.621Z,12.90
2019-04-01T21:15:57.184Z,12.93
2019-04-01T21:18:28.841Z,12.89
2019-04-01T21:21:00.482Z,12.92
2019-04-01T21:23:32.058Z,12.85
2019-04-01T21:26:03.820Z,12.85
2019-04-01T21:28:35.461Z,12.82
2019-04-01T21:31:07.108Z,12.79
2019-04-01T21:33:38.751Z,12.77
2019-04-01T21:36:10.344Z,12.84
2019-04-01T21:38:41.964Z,12.80
2019-04-01T21:41:13.578Z,12.83
2019-04-01T21:43:45.237Z,12.80
2019-04-01T21:46:16.881Z,12.77
2019-04-01T21:48:48.488Z,12.74
2019-04-01T21:51:20.071Z,12.75
2019-04-01T21:53:51.669Z,12.73
2019-04-01T21:56:23.515Z,12.74
2019-04-01T21:58:56.148Z,12.72
2019-04-01T22:01:28.911Z,12.68
2019-04-01T22:04:00.575Z,12.70
2019-04-01T22:06:32.163Z,12.65
2019-04-01T22:09:06.944Z,12.64
2019-04-01T22:11:39.507Z,12.64
2019-04-01T22:14:11.100Z,12.64
2019-04-01T22:16:42.741Z,12.61
2019-04-01T22:19:14.346Z,12.62
2019-04-01T22:21:45.922Z,12.57
2019-04-01T22:24:17.490Z,12.59
2019-04-01T22:26:49.090Z,12.58
2019-04-01T22:29:20.672Z,12.56
2019-04-01T22:31:52.323Z,12.56
2019-04-01T22:34:23.889Z,12.55
2019-04-01T22:36:55.523Z,12.53
2019-04-01T22:39:27.593Z,12.48
2019-04-01T22:41:59.284Z,12.52
2019-04-01T22:44:30.901Z,12.51
2019-04-01T22:47:02.537Z,12.51
2019-04-01T22:49:34.131Z,12.53
2019-04-01T22:52:06.479Z,12.51
2019-04-01T22:54:38.445Z,12.51
2019-04-01T22:57:09.990Z,12.47
2019-04-01T22:59:41.598Z,12.47
2019-04-01T23:02:13.542Z,12.46
2019-04-01T23:04:45.586Z,12.44
2019-04-01T23:07:17.155Z,12.41
2019-04-01T23:09:48.797Z,12.39
2019-04-01T23:12:22.164Z,12.34
2019-04-01T23:14:53.699Z,12.27
2019-04-01T23:17:25.274Z,12.21
2019-04-01T23:19:56.838Z,12.21
2019-04-01T23:22:29.259Z,12.19
2019-04-01T23:25:01.287Z,12.20
2019-04-01T23:27:32.933Z,12.17
2019-04-01T23:30:06.636Z,12.08
2019-04-01T23:32:38.235Z,12.10
2019-04-01T23:35:12.275Z,12.13
2019-04-01T23:38:02.899Z,12.13
2019-04-01T23:40:34.535Z,12.06
2019-04-01T23:43:06.176Z,12.07
2019-04-01T23:45:37.771Z,12.01
2019-04-01T23:48:09.357Z,12.03
2019-04-01T23:50:40.933Z,12.04
2019-04-01T23:53:31.833Z,12.08
2019-04-01T23:56:03.481Z,12.05
2019-04-01T23:58:35.073Z,11.98
